Elk City, Oklahoma
Current Conditions -  °F | °C
As of 4:15 PM on Tuesday 25 Nov 2014 (Local Time) from KELK Reporting Station
Clear Clear  
Wind Chill: 54°   Ceiling: Unl
Heat Index: 54°   Visibility: 10mi
Dew Point: 27°   Wind: 17mph
Humidity: 35%   Direction: 220°SW
Pressure: 30.12"   Gusts: 23mph
Location:  35.41°N, 99.42°W
Report Text: KELK 252215Z AUTO 22015G20KT 10SM CLR 12/M03 A3012 RMK AO2
Loading
Personal Weather Stations






























Interactive Weather Map New forecast layout! Learn more

10-Day Weather Forecast

Advertisements
Track Severe Weather on mobile